Terminal Aerodrome Forecast
Issued by NWS

Home | Current Version | Previous Version | Text Only | Print | Product List | Glossary On
Versions: 1 2 3 4 5 6 7 8 9 10 11 12 13 14
000
FTUS45 KRIW 122328
TAFCOD
TAF
KCOD 122328Z 1300/1324 27015G25KT P6SM BKN200
     FM130500 28012KT P6SM SCT110 BKN200
     FM131100 01009KT P6SM SCT050 BKN090 OVC150
     FM132000 02006KT P6SM VCSH SCT012 BKN040 OVC080
      AMD LTD TO CLD VIS AND WIND=

USA.gov is the U.S. government's official web portal to all federal, state and local government web resources and services.